createdAt,value
2022-11-21T00:01:28.961Z,8.28
2022-11-21T00:03:01.915Z,8.25
2022-11-21T00:04:33.874Z,8.24
2022-11-21T00:06:06.742Z,8.24
2022-11-21T00:07:38.440Z,8.22
2022-11-21T00:09:10.485Z,8.21
2022-11-21T00:10:42.550Z,8.19
2022-11-21T00:12:16.007Z,8.17
2022-11-21T00:13:48.883Z,8.16
2022-11-21T00:15:20.521Z,8.13
2022-11-21T00:16:57.356Z,8.15
2022-11-21T00:18:29.312Z,8.10
2022-11-21T00:20:00.914Z,8.11
2022-11-21T00:21:32.564Z,8.10
2022-11-21T00:23:04.562Z,8.10
2022-11-21T00:24:36.514Z,8.09
2022-11-21T00:26:09.454Z,8.05
2022-11-21T00:27:41.587Z,7.99
2022-11-21T00:29:13.242Z,8.01
2022-11-21T00:30:46.329Z,8.01
2022-11-21T00:32:19.651Z,8.01
2022-11-21T00:33:52.759Z,8.01
2022-11-21T00:35:24.421Z,8.00
2022-11-21T00:36:56.051Z,8.04
2022-11-21T00:38:27.677Z,8.05
2022-11-21T00:39:59.359Z,8.08
2022-11-21T00:41:30.958Z,7.99
2022-11-21T00:43:02.780Z,7.93
2022-11-21T00:44:34.454Z,7.90
2022-11-21T00:46:06.131Z,7.90
2022-11-21T00:47:39.718Z,7.90
2022-11-21T00:49:11.490Z,7.98
2022-11-21T00:50:43.142Z,7.99
2022-11-21T00:52:14.811Z,7.97
2022-11-21T00:53:46.570Z,7.94
2022-11-21T00:55:18.202Z,7.92
2022-11-21T00:56:51.553Z,7.95
2022-11-21T00:58:23.572Z,7.88
2022-11-21T00:59:55.237Z,7.87
2022-11-21T01:01:26.995Z,7.89
2022-11-21T01:03:01.130Z,7.90
2022-11-21T01:04:33.572Z,7.90
2022-11-21T01:06:07.902Z,7.92
2022-11-21T01:07:39.714Z,7.93
2022-11-21T01:09:11.615Z,7.93
2022-11-21T01:10:43.249Z,7.94
2022-11-21T01:12:14.913Z,7.98
2022-11-21T01:13:47.667Z,8.00
2022-11-21T01:15:19.344Z,8.03
2022-11-21T01:16:50.986Z,8.06
2022-11-21T01:18:24.016Z,8.07
2022-11-21T01:19:55.625Z,8.13
2022-11-21T01:21:29.503Z,8.25
2022-11-21T01:23:01.096Z,8.32
2022-11-21T01:24:33.883Z,8.35
2022-11-21T01:26:07.803Z,8.41
2022-11-21T01:27:39.404Z,8.35
2022-11-21T01:29:11.049Z,8.33
2022-11-21T01:30:42.691Z,8.33
2022-11-21T01:32:14.498Z,8.39
2022-11-21T01:33:48.158Z,8.32
2022-11-21T01:35:19.951Z,8.29
2022-11-21T01:36:51.562Z,8.26
2022-11-21T01:38:23.199Z,8.34
2022-11-21T01:39:55.189Z,8.36
2022-11-21T01:41:33.366Z,8.32
2022-11-21T01:43:13.508Z,8.27
2022-11-21T01:44:49.407Z,8.23
2022-11-21T01:46:22.338Z,8.19
2022-11-21T01:47:54.114Z,8.22
2022-11-21T01:49:30.617Z,8.23
2022-11-21T01:51:08.368Z,8.26
2022-11-21T01:52:40.118Z,8.24
2022-11-21T01:54:17.105Z,8.21
2022-11-21T01:55:49.434Z,8.22
2022-11-21T01:57:28.442Z,8.19
2022-11-21T01:59:03.505Z,8.14
2022-11-21T02:00:39.198Z,8.13
2022-11-21T02:02:13.505Z,8.09
2022-11-21T02:03:47.499Z,8.04
2022-11-21T02:05:23.470Z,8.07
2022-11-21T02:06:55.236Z,8.05
2022-11-21T02:08:27.930Z,8.07
2022-11-21T02:10:02.051Z,8.08
2022-11-21T02:11:39.096Z,8.11
2022-11-21T02:13:12.412Z,8.10
2022-11-21T02:14:44.799Z,8.17
2022-11-21T02:16:16.887Z,8.25
2022-11-21T02:17:48.664Z,8.26
2022-11-21T02:19:28.006Z,8.26
2022-11-21T02:21:11.619Z,8.24
2022-11-21T02:22:53.286Z,8.29
2022-11-21T02:24:33.381Z,8.24
2022-11-21T02:26:06.270Z,8.07
2022-11-21T02:27:38.501Z,8.03
2022-11-21T02:29:10.458Z,7.84
2022-11-21T02:30:43.041Z,7.79
2022-11-21T02:32:22.282Z,7.77
2022-11-21T02:33:54.491Z,7.88
2022-11-21T02:35:26.202Z,7.88
2022-11-21T02:36:58.227Z,7.88
2022-11-21T02:38:33.332Z,7.81
2022-11-21T02:40:09.994Z,7.87
2022-11-21T02:41:51.622Z,7.85
2022-11-21T02:43:26.235Z,7.93
2022-11-21T02:45:05.456Z,7.96
2022-11-21T02:46:47.352Z,7.92
2022-11-21T02:48:19.079Z,8.00
2022-11-21T02:49:56.770Z,7.98
2022-11-21T02:51:28.527Z,8.03
2022-11-21T02:53:00.427Z,8.06
2022-11-21T02:54:32.116Z,8.04
2022-11-21T02:56:04.167Z,8.06
2022-11-21T02:57:37.714Z,7.97
2022-11-21T02:59:09.325Z,7.84
2022-11-21T03:00:42.204Z,7.83
2022-11-21T03:02:13.882Z,7.91
2022-11-21T03:03:45.565Z,8.01
2022-11-21T03:05:19.098Z,8.08
2022-11-21T03:06:50.717Z,8.14
2022-11-21T03:08:22.395Z,8.15
2022-11-21T03:09:54.022Z,8.08
2022-11-21T03:11:25.624Z,8.01
2022-11-21T03:13:02.872Z,7.98
2022-11-21T03:14:34.713Z,7.87
2022-11-21T03:16:06.385Z,7.68
2022-11-21T03:17:39.038Z,7.60
2022-11-21T03:19:10.966Z,7.59
2022-11-21T03:20:42.679Z,7.54
2022-11-21T03:22:15.096Z,7.57
2022-11-21T03:23:47.418Z,7.61
2022-11-21T03:25:19.916Z,7.51
2022-11-21T03:26:51.610Z,7.41
2022-11-21T03:28:24.631Z,7.36
2022-11-21T03:29:56.600Z,7.30
2022-11-21T03:31:28.314Z,7.23
2022-11-21T03:33:00.259Z,7.14
2022-11-21T03:34:31.955Z,7.18
2022-11-21T03:36:04.054Z,7.22
2022-11-21T03:37:35.762Z,7.27
2022-11-21T03:39:08.384Z,7.42
2022-11-21T03:40:40.069Z,7.49
2022-11-21T03:42:13.230Z,7.47
2022-11-21T03:43:46.890Z,7.49
2022-11-21T03:45:19.300Z,7.41
2022-11-21T03:46:50.918Z,7.40
2022-11-21T03:48:22.557Z,7.41
2022-11-21T03:49:54.304Z,7.47
2022-11-21T03:51:26.694Z,7.45
2022-11-21T03:52:58.293Z,7.47
2022-11-21T03:54:30.299Z,7.49
2022-11-21T03:56:02.031Z,7.47
2022-11-21T03:57:33.696Z,7.47
2022-11-21T03:59:06.771Z,7.59
2022-11-21T04:00:38.396Z,7.74
2022-11-21T04:02:10.001Z,7.84
2022-11-21T04:03:42.744Z,7.91
2022-11-21T04:05:14.582Z,7.88
2022-11-21T04:06:46.441Z,7.70
2022-11-21T04:08:18.098Z,7.53
2022-11-21T04:09:49.685Z,7.38
2022-11-21T04:11:23.420Z,7.28
2022-11-21T04:12:55.060Z,7.18
2022-11-21T04:14:28.252Z,7.19
2022-11-21T04:16:00.104Z,7.31
2022-11-21T04:17:31.887Z,7.37
2022-11-21T04:19:03.714Z,7.48
2022-11-21T04:20:35.583Z,7.62
2022-11-21T04:22:07.390Z,7.72
2022-11-21T04:23:39.025Z,7.85
2022-11-21T04:25:10.796Z,7.92
2022-11-21T04:26:42.373Z,8.01
2022-11-21T04:28:14.444Z,8.05
2022-11-21T04:29:47.758Z,8.11
2022-11-21T04:31:19.467Z,8.13
2022-11-21T04:32:51.710Z,8.16
2022-11-21T04:34:23.333Z,8.18
2022-11-21T04:35:55.009Z,8.17
2022-11-21T04:37:26.667Z,8.11
2022-11-21T04:38:58.259Z,8.09
2022-11-21T04:40:30.128Z,7.98
2022-11-21T04:42:02.820Z,7.92
2022-11-21T04:43:34.502Z,7.98
2022-11-21T04:45:08.870Z,8.03
2022-11-21T04:46:40.530Z,8.03
2022-11-21T04:48:12.168Z,8.10
2022-11-21T04:49:43.803Z,8.05
2022-11-21T04:51:15.423Z,8.03
2022-11-21T04:52:50.391Z,8.04
2022-11-21T04:54:21.994Z,8.05
2022-11-21T04:55:53.725Z,8.07
2022-11-21T04:57:27.753Z,8.09
2022-11-21T04:58:59.455Z,8.06
2022-11-21T05:00:32.646Z,8.02
2022-11-21T05:02:04.937Z,8.04
2022-11-21T05:03:36.962Z,8.10
2022-11-21T05:05:09.907Z,8.03
2022-11-21T05:06:41.543Z,7.93
2022-11-21T05:08:13.204Z,7.85
2022-11-21T05:09:44.784Z,7.79
2022-11-21T05:11:35.024Z,7.76
2022-11-21T05:13:21.415Z,7.84
2022-11-21T05:14:53.033Z,7.88
2022-11-21T05:16:26.315Z,7.92
2022-11-21T05:17:59.130Z,7.94
2022-11-21T05:19:30.793Z,7.93
2022-11-21T05:21:03.047Z,7.92
2022-11-21T05:22:34.952Z,7.96
2022-11-21T05:24:07.308Z,8.04
2022-11-21T05:25:40.374Z,8.12
2022-11-21T05:27:12.134Z,8.13
2022-11-21T05:28:44.116Z,8.21
2022-11-21T05:30:16.420Z,8.27
2022-11-21T05:31:49.381Z,8.33
2022-11-21T05:33:21.204Z,8.38
2022-11-21T05:34:52.842Z,8.44
2022-11-21T05:36:24.470Z,8.50
2022-11-21T05:37:56.750Z,8.54
2022-11-21T05:39:29.999Z,8.57
2022-11-21T05:41:01.734Z,8.58
2022-11-21T05:42:59.500Z,8.59
2022-11-21T05:44:31.418Z,8.58
2022-11-21T05:46:03.209Z,8.61
2022-11-21T05:47:36.130Z,8.61
2022-11-21T05:49:08.200Z,8.57
2022-11-21T05:50:39.866Z,8.54
2022-11-21T05:52:11.440Z,8.48
2022-11-21T05:53:43.552Z,8.45
2022-11-21T05:55:15.385Z,8.46
2022-11-21T05:56:47.022Z,8.50
2022-11-21T05:58:18.702Z,8.56
2022-11-21T05:59:50.357Z,8.61
2022-11-21T06:01:40.749Z,8.65
2022-11-21T06:03:30.492Z,8.64
2022-11-21T06:05:02.187Z,8.62
2022-11-21T06:06:34.041Z,8.62
2022-11-21T06:08:06.089Z,8.63
2022-11-21T06:09:37.692Z,8.63
2022-11-21T06:11:11.260Z,8.66
2022-11-21T06:12:42.900Z,8.70
2022-11-21T06:14:14.567Z,8.71
2022-11-21T06:15:46.158Z,8.72
2022-11-21T06:17:17.855Z,8.69
2022-11-21T06:18:57.926Z,8.71
2022-11-21T06:20:30.112Z,8.76
2022-11-21T06:22:01.700Z,8.77
2022-11-21T06:23:35.100Z,8.74
2022-11-21T06:25:07.203Z,8.72
2022-11-21T06:26:38.950Z,8.68
2022-11-21T06:28:10.836Z,8.72
2022-11-21T06:29:42.606Z,8.74
2022-11-21T06:31:16.332Z,8.75
2022-11-21T06:32:47.963Z,8.78
2022-11-21T06:34:21.004Z,8.79
2022-11-21T06:35:52.759Z,8.78
2022-11-21T06:37:24.455Z,8.82
2022-11-21T06:38:56.595Z,8.85
2022-11-21T06:40:28.254Z,8.89
2022-11-21T06:42:01.205Z,8.91
2022-11-21T06:43:33.042Z,8.92
2022-11-21T06:45:05.559Z,8.92
2022-11-21T06:46:37.177Z,8.92
2022-11-21T06:48:08.818Z,8.90
2022-11-21T06:49:41.784Z,8.90
2022-11-21T06:51:17.375Z,8.93
2022-11-21T06:52:49.026Z,8.96
2022-11-21T06:54:20.662Z,8.98
2022-11-21T06:55:52.284Z,9.00
2022-11-21T06:57:23.884Z,9.02
2022-11-21T06:58:55.836Z,9.01
2022-11-21T07:00:28.989Z,8.91
2022-11-21T07:02:00.683Z,8.89
2022-11-21T07:03:32.407Z,8.81
2022-11-21T07:05:06.205Z,8.73
2022-11-21T07:06:38.328Z,8.74
2022-11-21T07:08:13.302Z,8.75
2022-11-21T07:09:47.440Z,8.66
2022-11-21T07:11:26.467Z,8.62
2022-11-21T07:13:17.392Z,8.65
2022-11-21T07:14:49.072Z,8.69
2022-11-21T07:16:20.905Z,8.73
2022-11-21T07:17:52.551Z,8.74
2022-11-21T07:19:24.557Z,8.74
2022-11-21T07:20:59.691Z,8.76
2022-11-21T07:22:31.408Z,8.76
2022-11-21T07:24:03.348Z,8.80
2022-11-21T07:25:36.817Z,8.84
2022-11-21T07:27:08.717Z,8.84
2022-11-21T07:28:40.434Z,8.80
2022-11-21T07:30:13.536Z,8.81
2022-11-21T07:31:45.156Z,8.86
2022-11-21T07:33:16.883Z,8.89
2022-11-21T07:34:48.531Z,8.90
2022-11-21T07:36:21.570Z,8.90
2022-11-21T07:37:53.713Z,8.89
2022-11-21T07:39:25.545Z,8.93
2022-11-21T07:40:57.323Z,8.97
2022-11-21T07:42:29.073Z,9.02
2022-11-21T07:44:01.534Z,9.06
2022-11-21T07:45:33.991Z,9.08
2022-11-21T07:47:05.636Z,9.13
2022-11-21T07:48:37.352Z,9.14
2022-11-21T07:50:11.060Z,9.14
2022-11-21T07:51:44.126Z,9.15
2022-11-21T07:53:15.864Z,9.15
2022-11-21T07:54:47.523Z,9.16
2022-11-21T07:56:19.209Z,9.20
2022-11-21T07:57:58.631Z,9.26
2022-11-21T07:59:30.528Z,9.31
2022-11-21T08:01:04.172Z,9.34
2022-11-21T08:02:35.776Z,9.36
2022-11-21T08:04:07.409Z,9.39
2022-11-21T08:05:41.114Z,9.40
2022-11-21T08:07:14.304Z,9.37
2022-11-21T08:08:46.067Z,9.35
2022-11-21T08:10:18.358Z,9.35
2022-11-21T08:11:49.994Z,9.38
2022-11-21T08:13:21.882Z,9.42
2022-11-21T08:14:53.467Z,9.44
2022-11-21T08:16:27.903Z,9.43
2022-11-21T08:18:06.434Z,9.42
2022-11-21T08:19:38.100Z,9.39
2022-11-21T08:21:09.742Z,9.41
2022-11-21T08:22:42.821Z,9.41
2022-11-21T08:24:15.609Z,9.39
2022-11-21T08:25:47.261Z,9.37
2022-11-21T08:27:21.130Z,9.32
2022-11-21T08:28:58.506Z,9.28
2022-11-21T08:30:32.086Z,9.27
2022-11-21T08:32:03.909Z,9.24
2022-11-21T08:33:35.549Z,9.24
2022-11-21T08:35:07.921Z,9.23
2022-11-21T08:36:39.577Z,9.25
2022-11-21T08:38:12.601Z,9.22
2022-11-21T08:39:44.241Z,9.22
2022-11-21T08:41:34.447Z,9.17
2022-11-21T08:43:07.873Z,9.12
2022-11-21T08:44:39.610Z,9.10
2022-11-21T08:46:11.211Z,9.07
2022-11-21T08:47:42.981Z,9.08
2022-11-21T08:49:15.345Z,9.08
2022-11-21T08:50:46.960Z,9.11
2022-11-21T08:52:18.700Z,9.09
2022-11-21T08:53:51.862Z,9.08
2022-11-21T08:55:23.566Z,9.10
2022-11-21T08:56:55.178Z,9.11
2022-11-21T08:58:26.800Z,9.14
2022-11-21T08:59:58.462Z,9.19
2022-11-21T09:01:30.166Z,9.23
2022-11-21T09:03:04.508Z,9.29
2022-11-21T09:04:36.194Z,9.37
2022-11-21T09:06:08.014Z,9.42
2022-11-21T09:07:41.193Z,9.48
2022-11-21T09:09:14.338Z,9.54
2022-11-21T09:10:45.972Z,9.60
2022-11-21T09:12:17.681Z,9.62
2022-11-21T09:14:09.342Z,9.54
2022-11-21T09:15:59.683Z,9.43
2022-11-21T09:17:50.090Z,9.42
2022-11-21T09:19:22.010Z,9.48
2022-11-21T09:20:53.724Z,9.57
2022-11-21T09:22:26.279Z,9.59
2022-11-21T09:24:00.498Z,9.65
2022-11-21T09:25:34.145Z,9.71
2022-11-21T09:27:05.795Z,9.75
2022-11-21T09:28:37.753Z,9.78
2022-11-21T09:30:10.124Z,9.77
2022-11-21T09:31:41.901Z,9.77
2022-11-21T09:33:16.717Z,9.74
2022-11-21T09:34:48.461Z,9.67
2022-11-21T09:36:20.053Z,9.63
2022-11-21T09:37:51.947Z,9.61
2022-11-21T09:39:23.699Z,9.63
2022-11-21T09:41:27.526Z,9.71
2022-11-21T09:43:08.544Z,9.82
2022-11-21T09:45:05.142Z,9.86
2022-11-21T09:46:44.870Z,9.92
2022-11-21T09:48:22.519Z,9.96
2022-11-21T09:50:00.708Z,9.97
2022-11-21T09:51:32.673Z,9.98
2022-11-21T09:53:10.040Z,9.97
2022-11-21T09:54:48.121Z,9.99
2022-11-21T09:56:25.844Z,10.06
2022-11-21T09:58:00.667Z,10.13
2022-11-21T09:59:35.224Z,10.12
2022-11-21T10:01:10.789Z,10.07
2022-11-21T10:02:42.685Z,10.06
2022-11-21T10:04:14.635Z,10.07
2022-11-21T10:05:51.625Z,10.05
2022-11-21T10:07:27.219Z,10.07
2022-11-21T10:09:07.507Z,10.12
2022-11-21T10:10:54.731Z,10.12
2022-11-21T10:12:36.885Z,10.10
2022-11-21T10:14:18.226Z,10.10
2022-11-21T10:15:58.232Z,10.14
2022-11-21T10:17:36.390Z,10.17
2022-11-21T10:19:33.107Z,10.17
2022-11-21T10:21:18.674Z,10.18
2022-11-21T10:23:11.557Z,10.22
2022-11-21T10:24:54.578Z,10.28
2022-11-21T10:26:40.154Z,10.32
2022-11-21T10:28:19.200Z,10.38
2022-11-21T10:29:55.978Z,10.43
2022-11-21T10:31:32.114Z,10.49
2022-11-21T10:33:05.845Z,10.49
2022-11-21T10:34:38.996Z,10.45
2022-11-21T10:36:20.762Z,10.43
2022-11-21T10:37:53.989Z,10.44
2022-11-21T10:39:38.293Z,10.45
2022-11-21T10:41:17.731Z,10.47
2022-11-21T10:42:55.006Z,10.50
2022-11-21T10:44:48.008Z,10.51
2022-11-21T10:46:19.841Z,10.51
2022-11-21T10:47:52.873Z,10.53
2022-11-21T10:49:27.842Z,10.58
2022-11-21T10:51:17.154Z,10.59
2022-11-21T10:52:51.055Z,10.57
2022-11-21T10:54:34.746Z,10.55
2022-11-21T10:56:09.545Z,10.43
2022-11-21T10:57:45.440Z,10.39
2022-11-21T10:59:30.075Z,10.40
2022-11-21T11:01:04.091Z,10.42
2022-11-21T11:02:35.772Z,10.42
2022-11-21T11:06:10.915Z,10.41
2022-11-21T11:07:43.196Z,10.48
2022-11-21T11:09:29.980Z,10.57
2022-11-21T11:11:04.115Z,10.64
2022-11-21T11:12:54.515Z,10.70
2022-11-21T11:14:31.345Z,10.78
2022-11-21T11:16:07.322Z,10.83
2022-11-21T11:17:38.978Z,10.86
2022-11-21T11:19:29.836Z,10.85
2022-11-21T11:21:17.240Z,10.84
2022-11-21T11:22:49.042Z,10.87
2022-11-21T11:24:24.340Z,10.89
2022-11-21T11:25:57.117Z,10.92
2022-11-21T11:27:29.489Z,10.97
2022-11-21T11:29:09.576Z,11.01
2022-11-21T11:30:41.067Z,11.05
2022-11-21T11:32:21.218Z,11.12
2022-11-21T11:33:55.790Z,11.20
2022-11-21T11:35:33.270Z,11.24
2022-11-21T11:37:12.387Z,11.29
2022-11-21T11:38:52.261Z,11.32
2022-11-21T11:40:30.583Z,11.38
2022-11-21T11:42:42.726Z,11.43
2022-11-21T11:44:42.252Z,11.39
2022-11-21T11:46:52.103Z,11.30
2022-11-21T11:48:25.112Z,11.24
2022-11-21T11:50:15.017Z,11.22
2022-11-21T11:51:51.342Z,11.24
2022-11-21T11:53:26.313Z,11.31
2022-11-21T11:55:03.390Z,11.43
2022-11-21T11:56:38.305Z,11.55
2022-11-21T11:58:19.987Z,11.70
2022-11-21T12:00:03.582Z,11.76
2022-11-21T12:01:49.573Z,11.71
2022-11-21T12:03:28.454Z,11.66
2022-11-21T12:05:07.081Z,11.61
2022-11-21T12:07:46.671Z,11.53
2022-11-21T12:08:45.062Z,11.44
2022-11-21T12:10:23.619Z,11.43
2022-11-21T12:12:08.269Z,11.49
2022-11-21T12:13:41.157Z,11.53
2022-11-21T12:15:34.195Z,11.55
2022-11-21T12:17:09.899Z,11.56
2022-11-21T12:18:50.872Z,11.57
2022-11-21T12:20:28.279Z,11.53
2022-11-21T12:21:59.999Z,11.48
2022-11-21T12:23:36.697Z,11.44
2022-11-21T12:25:11.206Z,11.39
2022-11-21T12:26:56.453Z,11.36
2022-11-21T12:28:38.950Z,11.32
2022-11-21T12:30:46.241Z,11.32
2022-11-21T12:32:33.258Z,11.33
2022-11-21T12:34:20.469Z,11.43
2022-11-21T12:36:18.294Z,11.54
2022-11-21T12:38:09.640Z,11.59
2022-11-21T12:40:00.507Z,11.61
2022-11-21T12:42:00.460Z,11.63
2022-11-21T12:43:39.740Z,11.63
2022-11-21T12:45:27.358Z,11.60
2022-11-21T12:47:13.469Z,11.58
2022-11-21T12:49:15.796Z,11.59
2022-11-21T12:51:14.996Z,11.56
2022-11-21T12:53:08.985Z,11.51
2022-11-21T12:54:56.035Z,11.52
2022-11-21T12:56:36.835Z,11.59
2022-11-21T12:58:26.212Z,11.62
2022-11-21T13:00:08.992Z,11.65
2022-11-21T13:01:48.209Z,11.69
2022-11-21T13:03:38.807Z,11.70
2022-11-21T13:05:13.826Z,11.69
2022-11-21T13:06:48.943Z,11.70
2022-11-21T13:08:24.628Z,11.73
2022-11-21T13:10:00.034Z,11.74
2022-11-21T13:12:00.244Z,11.73
2022-11-21T13:13:35.972Z,11.72
2022-11-21T13:15:21.751Z,11.72
2022-11-21T13:17:04.143Z,11.74
2022-11-21T13:18:42.889Z,11.78
2022-11-21T13:20:21.450Z,11.80
2022-11-21T13:21:55.034Z,11.75
2022-11-21T13:23:38.315Z,11.68
2022-11-21T13:25:11.412Z,11.65
2022-11-21T13:26:53.678Z,11.65
2022-11-21T13:28:37.558Z,11.65
2022-11-21T13:30:23.807Z,11.69
2022-11-21T13:31:55.574Z,11.68
2022-11-21T13:33:48.191Z,11.68
2022-11-21T13:36:05.769Z,11.65
2022-11-21T13:38:02.788Z,11.57
2022-11-21T13:39:38.183Z,11.57
2022-11-21T13:41:28.399Z,11.61
2022-11-21T13:43:33.449Z,11.64
2022-11-21T13:45:38.003Z,11.66
2022-11-21T13:47:29.421Z,11.68
2022-11-21T13:49:10.135Z,11.65
2022-11-21T13:51:35.735Z,11.60
2022-11-21T13:53:27.522Z,11.51
2022-11-21T13:55:19.011Z,11.47
2022-11-21T13:57:07.035Z,11.45
2022-11-21T13:58:54.577Z,11.39
2022-11-21T14:00:40.869Z,11.40
2022-11-21T14:02:38.166Z,11.39
2022-11-21T14:04:29.363Z,11.31
2022-11-21T14:06:26.018Z,11.30
2022-11-21T14:08:16.871Z,11.23
2022-11-21T14:09:51.018Z,11.19
2022-11-21T14:11:41.313Z,11.17
2022-11-21T14:13:22.605Z,11.13
2022-11-21T14:15:16.039Z,11.09
2022-11-21T14:16:53.352Z,11.09
2022-11-21T14:18:26.364Z,11.08
2022-11-21T14:20:00.808Z,11.04
2022-11-21T14:21:33.777Z,11.01
2022-11-21T14:23:14.257Z,10.98
2022-11-21T14:24:47.869Z,10.91
2022-11-21T14:26:21.236Z,10.87
2022-11-21T14:27:55.990Z,10.85
2022-11-21T14:29:37.339Z,10.81
2022-11-21T14:31:11.757Z,10.83
2022-11-21T14:32:47.232Z,10.83
2022-11-21T14:34:25.399Z,10.81
2022-11-21T14:36:01.223Z,10.75
2022-11-21T14:37:32.946Z,10.72
2022-11-21T14:39:37.808Z,10.73
2022-11-21T14:41:23.957Z,10.69
2022-11-21T14:42:55.650Z,10.68
2022-11-21T14:44:27.885Z,10.67
2022-11-21T14:46:00.108Z,10.64
2022-11-21T14:47:31.802Z,10.60
2022-11-21T14:49:22.350Z,10.63
2022-11-21T14:50:55.113Z,10.64
2022-11-21T14:52:29.301Z,10.64
2022-11-21T14:54:02.734Z,10.66
2022-11-21T14:55:34.700Z,10.67
2022-11-21T14:57:08.783Z,10.67
2022-11-21T14:58:40.957Z,10.64
2022-11-21T15:02:14.424Z,10.55
2022-11-21T15:03:55.411Z,10.50
2022-11-21T15:05:54.880Z,10.49
2022-11-21T15:07:30.144Z,10.48
2022-11-21T15:10:05.739Z,10.46
2022-11-21T15:10:59.391Z,10.45
2022-11-21T15:12:41.542Z,10.44
2022-11-21T15:14:23.968Z,10.38
2022-11-21T15:15:57.329Z,10.35
2022-11-21T15:17:30.097Z,10.31
2022-11-21T15:19:08.213Z,10.27
2022-11-21T15:20:39.912Z,10.23
2022-11-21T15:22:23.851Z,10.23
2022-11-21T15:23:55.595Z,10.22
2022-11-21T15:25:29.537Z,10.23
2022-11-21T15:27:01.268Z,10.24
2022-11-21T15:28:34.269Z,10.22
2022-11-21T15:30:21.352Z,10.20
2022-11-21T15:32:06.136Z,10.15
2022-11-21T15:34:27.349Z,10.16
2022-11-21T15:35:51.439Z,10.11
2022-11-21T15:37:25.449Z,10.09
2022-11-21T15:39:03.531Z,10.07
2022-11-21T15:40:36.570Z,10.05
2022-11-21T15:42:37.175Z,10.02
2022-11-21T15:44:33.526Z,9.98
2022-11-21T15:46:13.519Z,9.96
2022-11-21T15:47:45.227Z,9.93
2022-11-21T15:49:33.797Z,9.91
2022-11-21T15:51:05.644Z,9.89
2022-11-21T15:52:44.633Z,9.90
2022-11-21T15:54:18.014Z,9.87
2022-11-21T15:55:49.726Z,9.85
2022-11-21T15:57:22.154Z,9.85
2022-11-21T15:58:54.931Z,9.83
2022-11-21T16:00:27.980Z,9.85
2022-11-21T16:01:59.571Z,9.86
2022-11-21T16:03:31.288Z,9.86
2022-11-21T16:05:03.504Z,9.86
2022-11-21T16:06:35.376Z,9.89
2022-11-21T16:08:07.265Z,9.89
2022-11-21T16:09:40.815Z,9.88
2022-11-21T16:11:18.011Z,9.88
2022-11-21T16:12:49.733Z,9.89
2022-11-21T16:14:21.347Z,9.90
2022-11-21T16:15:54.748Z,9.86
2022-11-21T16:17:27.057Z,9.86
2022-11-21T16:18:59.441Z,9.90
2022-11-21T16:20:31.190Z,9.93
2022-11-21T16:22:02.862Z,9.94
2022-11-21T16:23:34.800Z,9.92
2022-11-21T16:25:08.183Z,9.92
2022-11-21T16:26:39.888Z,9.92
2022-11-21T16:28:11.501Z,9.88
2022-11-21T16:29:43.170Z,9.85
2022-11-21T16:31:20.521Z,9.85
2022-11-21T16:32:55.427Z,9.80
2022-11-21T16:34:27.600Z,9.81
2022-11-21T16:35:59.545Z,9.81
2022-11-21T16:37:31.339Z,9.80
2022-11-21T16:39:08.967Z,9.80
2022-11-21T16:40:41.883Z,9.83
2022-11-21T16:42:13.514Z,9.84
2022-11-21T16:43:47.349Z,9.86
2022-11-21T16:45:18.963Z,9.84
2022-11-21T16:46:54.227Z,9.87
2022-11-21T16:48:25.884Z,9.86
2022-11-21T16:49:57.523Z,9.87
2022-11-21T16:51:29.770Z,9.87
2022-11-21T16:53:01.638Z,9.88
2022-11-21T16:54:33.276Z,9.92
2022-11-21T16:56:04.951Z,9.93
2022-11-21T16:57:36.730Z,9.92
2022-11-21T16:59:08.387Z,9.90
2022-11-21T17:00:40.393Z,9.89
2022-11-21T17:02:13.448Z,9.92
2022-11-21T17:03:47.463Z,9.90
2022-11-21T17:05:19.674Z,9.93
2022-11-21T17:06:51.424Z,9.93
2022-11-21T17:08:23.080Z,9.94
2022-11-21T17:09:54.956Z,9.96
2022-11-21T17:11:29.415Z,9.92
2022-11-21T17:13:01.169Z,9.88
2022-11-21T17:14:32.778Z,9.87
2022-11-21T17:16:04.918Z,9.85
2022-11-21T17:17:38.224Z,9.82
2022-11-21T17:19:12.244Z,9.76
2022-11-21T17:20:43.918Z,9.73
2022-11-21T17:22:24.383Z,9.75
2022-11-21T17:23:56.892Z,9.73
2022-11-21T17:25:28.922Z,9.72
2022-11-21T17:27:02.497Z,9.70
2022-11-21T17:28:34.586Z,9.71
2022-11-21T17:30:07.637Z,9.72
2022-11-21T17:31:41.705Z,9.69
2022-11-21T17:33:14.711Z,9.71
2022-11-21T17:34:46.367Z,9.70
2022-11-21T17:36:20.175Z,9.65
2022-11-21T17:37:51.778Z,9.67
2022-11-21T17:39:29.367Z,9.66
2022-11-21T17:41:02.506Z,9.68
2022-11-21T17:42:34.190Z,9.66
2022-11-21T17:44:06.467Z,9.63
2022-11-21T17:45:38.139Z,9.59
2022-11-21T17:47:09.775Z,9.55
2022-11-21T17:48:43.375Z,9.52
2022-11-21T17:50:15.196Z,9.49
2022-11-21T17:51:47.080Z,9.49
2022-11-21T17:53:18.744Z,9.51
2022-11-21T17:54:50.370Z,9.49
2022-11-21T17:56:24.504Z,9.46
2022-11-21T17:57:56.165Z,9.44
2022-11-21T17:59:28.448Z,9.45
2022-11-21T18:01:01.920Z,9.45
2022-11-21T18:02:33.807Z,9.47
2022-11-21T18:04:13.394Z,9.47
2022-11-21T18:05:51.493Z,9.44
2022-11-21T18:07:23.509Z,9.45
2022-11-21T18:08:59.583Z,9.42
2022-11-21T18:10:46.647Z,9.43
2022-11-21T18:12:18.331Z,9.44
2022-11-21T18:13:50.767Z,9.45
2022-11-21T18:15:22.399Z,9.44
2022-11-21T18:16:54.184Z,9.47
2022-11-21T18:18:25.839Z,9.47
2022-11-21T18:19:58.819Z,9.45
2022-11-21T18:21:32.180Z,9.41
2022-11-21T18:23:03.860Z,9.42
2022-11-21T18:24:35.493Z,9.43
2022-11-21T18:26:10.963Z,9.43
2022-11-21T18:27:42.715Z,9.42
2022-11-21T18:31:07.508Z,9.45
2022-11-21T18:32:39.205Z,9.46
2022-11-21T18:34:11.983Z,9.44
2022-11-21T18:35:45.012Z,9.42
2022-11-21T18:37:16.578Z,9.41
2022-11-21T18:38:53.645Z,9.41
2022-11-21T18:40:29.556Z,9.43
2022-11-21T18:42:01.213Z,9.42
2022-11-21T18:43:32.966Z,9.43
2022-11-21T18:45:05.433Z,9.46
2022-11-21T18:46:38.531Z,9.43
2022-11-21T18:48:10.246Z,9.43
2022-11-21T18:49:41.908Z,9.44
2022-11-21T18:51:16.606Z,9.45
2022-11-21T18:52:48.236Z,9.46
2022-11-21T18:54:19.874Z,9.44
2022-11-21T18:55:51.556Z,9.42
2022-11-21T18:57:23.197Z,9.40
2022-11-21T18:58:58.588Z,9.38
2022-11-21T19:00:30.812Z,9.34
2022-11-21T19:02:02.550Z,9.33
2022-11-21T19:03:34.747Z,9.32
2022-11-21T19:05:06.861Z,9.32
2022-11-21T19:06:39.916Z,9.32
2022-11-21T19:08:11.578Z,9.34
2022-11-21T19:09:43.193Z,9.37
2022-11-21T19:11:15.932Z,9.35
2022-11-21T19:12:47.539Z,9.31
2022-11-21T19:14:19.161Z,9.33
2022-11-21T19:15:50.885Z,9.33
2022-11-21T19:17:22.706Z,9.32
2022-11-21T19:20:46.844Z,9.23
2022-11-21T19:22:19.950Z,9.27
2022-11-21T19:23:51.755Z,9.25
2022-11-21T19:25:23.365Z,9.27
2022-11-21T19:26:55.066Z,9.27
2022-11-21T19:28:27.382Z,9.25
2022-11-21T19:29:59.044Z,9.23
2022-11-21T19:31:30.671Z,9.25
2022-11-21T19:33:02.856Z,9.24
2022-11-21T19:34:34.563Z,9.20
2022-11-21T19:36:09.784Z,9.20
2022-11-21T19:37:43.040Z,9.25
2022-11-21T19:39:17.121Z,9.24
2022-11-21T19:41:07.122Z,9.26
2022-11-21T19:42:39.353Z,9.26
2022-11-21T19:44:11.516Z,9.26
2022-11-21T19:45:44.694Z,9.24
2022-11-21T19:47:16.351Z,9.28
2022-11-21T19:48:48.759Z,9.28
2022-11-21T19:50:20.443Z,9.25
2022-11-21T19:51:52.114Z,9.29
2022-11-21T19:53:25.286Z,9.30
2022-11-21T19:54:57.011Z,9.31
2022-11-21T19:56:28.865Z,9.30
2022-11-21T19:58:00.535Z,9.30
2022-11-21T19:59:32.797Z,9.29
2022-11-21T20:01:06.430Z,9.32
2022-11-21T20:02:38.131Z,9.24
2022-11-21T20:04:11.172Z,9.21
2022-11-21T20:05:42.787Z,9.26
2022-11-21T20:07:14.473Z,9.32
2022-11-21T20:08:50.923Z,9.27
2022-11-21T20:10:23.083Z,9.26
2022-11-21T20:11:54.775Z,9.28
2022-11-21T20:13:26.414Z,9.30
2022-11-21T20:14:58.051Z,9.28
2022-11-21T20:16:31.830Z,9.30
2022-11-21T20:18:05.230Z,9.30
2022-11-21T20:19:36.915Z,9.31
2022-11-21T20:21:10.033Z,9.33
2022-11-21T20:22:41.836Z,9.36
2022-11-21T20:24:15.074Z,9.36
2022-11-21T20:25:50.068Z,9.37
2022-11-21T20:27:24.311Z,9.37
2022-11-21T20:28:56.571Z,9.34
2022-11-21T20:30:28.243Z,9.29
2022-11-21T20:32:01.605Z,9.29
2022-11-21T20:33:37.423Z,9.30
2022-11-21T20:35:09.446Z,9.30
2022-11-21T20:36:42.314Z,9.27
2022-11-21T20:38:13.931Z,9.31
2022-11-21T20:39:46.922Z,9.35
2022-11-21T20:41:19.017Z,9.40
2022-11-21T20:42:52.169Z,9.44
2022-11-21T20:45:25.452Z,9.46
2022-11-21T20:46:20.444Z,9.42
2022-11-21T20:47:52.844Z,9.41
2022-11-21T20:49:24.789Z,9.38
2022-11-21T20:53:50.213Z,9.34
2022-11-21T20:54:41.804Z,9.29
2022-11-21T20:56:14.979Z,9.27
2022-11-21T20:57:46.638Z,9.22
2022-11-21T20:59:18.700Z,9.21
2022-11-21T21:00:50.423Z,9.23
2022-11-21T21:02:22.045Z,9.23
2022-11-21T21:03:53.923Z,9.23
2022-11-21T21:05:25.958Z,9.18
2022-11-21T21:06:57.569Z,9.22
2022-11-21T21:08:30.197Z,9.22
2022-11-21T21:10:01.972Z,9.24
2022-11-21T21:11:51.386Z,9.20